createdAt,value
2018-12-08T00:01:18.378Z,0.67
2018-12-08T00:03:45.090Z,1.20
2018-12-08T00:06:11.868Z,0.73
2018-12-08T00:08:38.504Z,0.70
2018-12-08T00:11:05.152Z,0.80
2018-12-08T00:13:31.784Z,0.80
2018-12-08T00:15:58.528Z,0.70
2018-12-08T00:18:25.770Z,0.70
2018-12-08T00:20:52.686Z,0.63
2018-12-08T00:23:19.805Z,0.80
2018-12-08T00:25:46.459Z,0.53
2018-12-08T00:28:13.781Z,0.90
2018-12-08T00:30:47.535Z,0.40
2018-12-08T00:33:14.296Z,0.90
2018-12-08T00:35:40.966Z,1.00
2018-12-08T00:38:07.636Z,0.60
2018-12-08T00:40:34.344Z,0.70
2018-12-08T00:43:00.671Z,0.60
2018-12-08T00:45:27.377Z,0.50
2018-12-08T00:47:54.052Z,0.97
2018-12-08T00:50:20.744Z,0.97
2018-12-08T00:52:47.300Z,0.90
2018-12-08T00:55:14.016Z,0.70
2018-12-08T00:57:40.921Z,0.90
2018-12-08T01:00:07.656Z,0.80
2018-12-08T01:02:34.406Z,0.50
2018-12-08T01:05:01.106Z,0.67
2018-12-08T01:07:27.830Z,0.90
2018-12-08T01:09:54.588Z,0.67
2018-12-08T01:12:21.268Z,0.70
2018-12-08T01:14:47.636Z,0.63
2018-12-08T01:17:14.312Z,0.43
2018-12-08T01:19:41.119Z,0.83
2018-12-08T01:22:07.456Z,0.60
2018-12-08T01:24:34.083Z,1.00
2018-12-08T01:27:00.513Z,0.60
2018-12-08T01:29:27.205Z,0.50
2018-12-08T01:31:53.968Z,0.40
2018-12-08T01:34:20.780Z,0.70
2018-12-08T01:36:47.633Z,0.70
2018-12-08T01:39:14.386Z,0.40
2018-12-08T01:41:41.132Z,0.60
2018-12-08T01:44:07.861Z,0.60
2018-12-08T01:46:34.703Z,0.80
2018-12-08T01:49:01.136Z,0.50
2018-12-08T01:51:27.747Z,0.70
2018-12-08T01:53:54.166Z,0.60
2018-12-08T01:56:20.555Z,0.77
2018-12-08T01:58:46.907Z,0.50
2018-12-08T02:01:13.546Z,0.97
2018-12-08T02:03:40.240Z,0.57
2018-12-08T02:06:06.887Z,0.47
2018-12-08T02:08:33.222Z,0.53
2018-12-08T02:10:59.517Z,0.40
2018-12-08T02:13:26.155Z,0.63
2018-12-08T02:15:52.433Z,0.50
2018-12-08T02:18:19.070Z,0.37
2018-12-08T02:20:45.687Z,0.33
2018-12-08T02:23:12.325Z,0.30
2018-12-08T02:25:38.968Z,0.50
2018-12-08T02:28:05.235Z,0.93
2018-12-08T02:30:31.531Z,0.43
2018-12-08T02:32:57.841Z,0.50
2018-12-08T02:35:24.216Z,0.60
2018-12-08T02:37:50.945Z,0.30
2018-12-08T02:40:17.572Z,0.40
2018-12-08T02:42:43.892Z,0.43
2018-12-08T02:45:10.605Z,0.90
2018-12-08T02:47:37.244Z,0.60
2018-12-08T02:50:04.641Z,0.60
2018-12-08T02:52:30.946Z,0.40
2018-12-08T02:54:57.217Z,0.50
2018-12-08T02:57:23.528Z,0.53
2018-12-08T02:59:50.165Z,0.60
2018-12-08T03:02:16.811Z,0.50
2018-12-08T03:04:43.461Z,0.60
2018-12-08T03:07:10.126Z,0.30
2018-12-08T03:09:36.820Z,0.50
2018-12-08T03:12:03.148Z,0.80
2018-12-08T03:14:29.476Z,0.60
2018-12-08T03:16:55.767Z,0.40
2018-12-08T03:19:22.442Z,0.37
2018-12-08T03:21:49.128Z,0.30
2018-12-08T03:24:15.764Z,0.60
2018-12-08T03:26:42.405Z,0.80
2018-12-08T03:29:09.052Z,0.50
2018-12-08T03:31:35.717Z,0.50
2018-12-08T03:34:02.133Z,0.73
2018-12-08T03:36:28.820Z,0.70
2018-12-08T03:38:55.443Z,0.53
2018-12-08T03:41:21.838Z,0.53
2018-12-08T03:43:48.497Z,0.57
2018-12-08T03:46:15.127Z,0.50
2018-12-08T03:48:41.768Z,0.30
2018-12-08T03:51:08.107Z,0.40
2018-12-08T03:53:34.389Z,0.40
2018-12-08T03:56:01.044Z,0.40
2018-12-08T03:58:27.685Z,0.47
2018-12-08T04:00:53.987Z,0.50
2018-12-08T04:03:20.659Z,0.30
2018-12-08T04:05:47.322Z,0.50
2018-12-08T04:08:13.633Z,0.40
2018-12-08T04:10:40.283Z,0.40
2018-12-08T04:13:06.579Z,0.30
2018-12-08T04:15:33.212Z,0.47
2018-12-08T04:17:59.867Z,0.40
2018-12-08T04:20:26.504Z,0.50
2018-12-08T04:22:53.152Z,0.40
2018-12-08T04:25:19.811Z,0.47
2018-12-08T04:27:46.445Z,0.43
2018-12-08T04:30:13.094Z,0.50
2018-12-08T04:32:39.382Z,0.67
2018-12-08T04:35:05.790Z,0.50
2018-12-08T04:37:32.558Z,0.43
2018-12-08T04:39:58.994Z,0.50
2018-12-08T04:42:25.639Z,0.47
2018-12-08T04:44:52.254Z,0.30
2018-12-08T04:47:19.106Z,0.40
2018-12-08T04:49:45.847Z,0.50
2018-12-08T04:52:14.391Z,0.43
2018-12-08T04:54:41.034Z,0.40
2018-12-08T04:57:07.673Z,0.67
2018-12-08T04:59:34.397Z,0.47
2018-12-08T05:02:00.947Z,0.30
2018-12-08T05:04:27.245Z,0.80
2018-12-08T05:06:53.880Z,0.60
2018-12-08T05:09:20.136Z,0.47
2018-12-08T05:11:46.776Z,0.60
2018-12-08T05:14:13.067Z,0.60
2018-12-08T05:16:39.735Z,0.70
2018-12-08T05:19:06.020Z,0.70
2018-12-08T05:21:32.647Z,0.67
2018-12-08T05:23:59.262Z,0.60
2018-12-08T05:26:25.898Z,0.70
2018-12-08T05:28:52.515Z,0.47
2018-12-08T05:31:18.833Z,0.50
2018-12-08T05:33:45.471Z,0.50
2018-12-08T05:36:12.119Z,0.40
2018-12-08T05:38:38.801Z,0.50
2018-12-08T05:41:05.076Z,0.70
2018-12-08T05:43:31.708Z,0.50
2018-12-08T05:45:58.358Z,0.23
2018-12-08T05:48:25.908Z,0.30
2018-12-08T05:50:52.556Z,0.43
2018-12-08T05:53:19.198Z,0.40
2018-12-08T05:55:45.833Z,0.40
2018-12-08T05:58:12.511Z,0.40
2018-12-08T06:00:39.176Z,0.40
2018-12-08T06:03:05.502Z,0.30
2018-12-08T06:05:32.162Z,0.40
2018-12-08T06:07:58.823Z,0.50
2018-12-08T06:10:25.552Z,0.50
2018-12-08T06:12:51.860Z,0.33
2018-12-08T06:15:18.504Z,0.60
2018-12-08T06:17:45.140Z,0.50
2018-12-08T06:20:11.784Z,0.60
2018-12-08T06:22:38.120Z,0.30
2018-12-08T06:25:06.234Z,0.57
2018-12-08T06:27:34.178Z,0.50
2018-12-08T06:30:03.068Z,0.50
2018-12-08T06:32:29.688Z,0.60
2018-12-08T06:34:55.968Z,0.60
2018-12-08T06:37:22.287Z,0.40
2018-12-08T06:39:48.948Z,0.40
2018-12-08T06:42:15.272Z,0.33
2018-12-08T06:44:41.915Z,0.50
2018-12-08T06:47:09.554Z,0.60
2018-12-08T06:49:35.842Z,0.37
2018-12-08T06:52:02.478Z,0.50
2018-12-08T06:54:29.116Z,0.90
2018-12-08T06:56:55.774Z,0.60
2018-12-08T06:59:22.394Z,0.60
2018-12-08T07:01:48.692Z,0.60
2018-12-08T07:04:14.983Z,0.40
2018-12-08T07:06:41.262Z,0.73
2018-12-08T07:09:07.544Z,0.40
2018-12-08T07:11:34.184Z,0.60
2018-12-08T07:14:02.907Z,0.73
2018-12-08T07:16:29.201Z,0.73
2018-12-08T07:18:55.532Z,0.80
2018-12-08T07:21:22.172Z,0.53
2018-12-08T07:23:48.808Z,0.60
2018-12-08T07:26:15.460Z,0.30
2018-12-08T07:28:41.773Z,0.63
2018-12-08T07:31:08.075Z,0.50
2018-12-08T07:33:34.433Z,0.57
2018-12-08T07:36:00.834Z,0.60
2018-12-08T07:38:27.492Z,1.03
2018-12-08T07:40:54.158Z,0.67
2018-12-08T07:43:20.813Z,0.57
2018-12-08T07:45:47.115Z,0.50
2018-12-08T07:48:13.765Z,0.50
2018-12-08T07:50:40.448Z,1.00
2018-12-08T07:53:06.774Z,1.13
2018-12-08T07:55:33.116Z,0.93
2018-12-08T07:57:59.773Z,1.00
2018-12-08T08:00:26.518Z,0.90
2018-12-08T08:02:53.196Z,1.10
2018-12-08T08:05:19.836Z,0.83
2018-12-08T08:07:46.138Z,0.60
2018-12-08T08:10:12.841Z,0.57
2018-12-08T08:12:39.214Z,1.23
2018-12-08T08:15:05.870Z,1.10
2018-12-08T08:17:32.185Z,1.10
2018-12-08T08:19:58.824Z,1.10
2018-12-08T08:22:25.484Z,0.90
2018-12-08T08:24:52.179Z,0.70
2018-12-08T08:27:18.472Z,0.50
2018-12-08T08:29:45.116Z,1.00
2018-12-08T08:32:11.767Z,0.90
2018-12-08T08:34:38.404Z,0.80
2018-12-08T08:37:04.708Z,1.30
2018-12-08T08:39:31.323Z,1.00
2018-12-08T08:41:57.958Z,0.90
2018-12-08T08:44:24.612Z,0.90
2018-12-08T08:46:51.242Z,1.00
2018-12-08T08:49:17.857Z,0.70
2018-12-08T08:51:44.549Z,1.00
2018-12-08T08:54:10.829Z,0.80
2018-12-08T08:56:37.117Z,0.90
2018-12-08T08:59:03.801Z,0.57
2018-12-08T09:01:30.487Z,0.80
2018-12-08T09:03:57.221Z,0.70
2018-12-08T09:06:23.871Z,0.90
2018-12-08T09:08:51.028Z,0.80
2018-12-08T09:11:17.661Z,0.80
2018-12-08T09:13:44.309Z,0.80
2018-12-08T09:16:10.935Z,0.80
2018-12-08T09:18:37.611Z,0.67
2018-12-08T09:21:04.289Z,0.80
2018-12-08T09:23:30.572Z,0.73
2018-12-08T09:25:57.207Z,0.90
2018-12-08T09:28:23.525Z,0.90
2018-12-08T09:30:49.805Z,0.77
2018-12-08T09:33:16.438Z,0.60
2018-12-08T09:35:43.131Z,0.83
2018-12-08T09:38:10.396Z,0.60
2018-12-08T09:40:37.024Z,0.70
2018-12-08T09:43:03.664Z,1.00
2018-12-08T09:45:30.317Z,0.60
2018-12-08T09:48:03.858Z,0.70
2018-12-08T09:50:30.485Z,0.80
2018-12-08T09:53:03.118Z,0.70
2018-12-08T09:55:29.756Z,0.70
2018-12-08T09:57:56.400Z,0.60
2018-12-08T10:00:22.698Z,1.00
2018-12-08T10:02:49.332Z,0.70
2018-12-08T10:05:15.960Z,0.80
2018-12-08T10:07:42.595Z,0.93
2018-12-08T10:10:09.274Z,2.67
2018-12-08T10:12:35.945Z,2.03
2018-12-08T10:15:02.813Z,1.13
2018-12-08T10:17:29.483Z,0.67
2018-12-08T10:19:55.796Z,0.93
2018-12-08T10:22:22.466Z,1.47
2018-12-08T10:24:48.764Z,0.80
2018-12-08T10:27:15.807Z,1.10
2018-12-08T10:29:42.109Z,1.27
2018-12-08T10:32:08.749Z,1.53
2018-12-08T10:34:35.383Z,1.40
2018-12-08T10:37:02.097Z,1.10
2018-12-08T10:39:28.742Z,1.10
2018-12-08T10:41:55.389Z,1.17
2018-12-08T10:44:22.147Z,1.00
2018-12-08T10:46:49.161Z,0.70
2018-12-08T10:49:15.564Z,0.70
2018-12-08T10:51:42.223Z,1.13
2018-12-08T10:54:08.508Z,0.83
2018-12-08T10:56:34.807Z,0.87
2018-12-08T10:59:01.476Z,0.77
2018-12-08T11:01:30.705Z,1.10
2018-12-08T11:03:57.341Z,0.90
2018-12-08T11:06:23.986Z,1.00
2018-12-08T11:08:50.622Z,1.03
2018-12-08T11:11:16.894Z,0.70
2018-12-08T11:13:43.184Z,1.00
2018-12-08T11:16:10.002Z,1.13
2018-12-08T11:18:37.114Z,0.83
2018-12-08T11:21:03.764Z,0.57
2018-12-08T11:23:30.913Z,0.93
2018-12-08T11:25:57.810Z,0.90
2018-12-08T11:28:24.479Z,0.50
2018-12-08T11:30:51.109Z,0.73
2018-12-08T11:33:17.413Z,0.83
2018-12-08T11:35:44.193Z,0.80
2018-12-08T11:38:10.850Z,0.70
2018-12-08T11:40:37.511Z,0.70
2018-12-08T11:43:03.973Z,0.70
2018-12-08T11:45:30.735Z,0.47
2018-12-08T11:48:03.990Z,0.40
2018-12-08T11:50:30.292Z,0.80
2018-12-08T11:52:56.595Z,0.80
2018-12-08T11:55:30.174Z,0.97
2018-12-08T11:57:51.553Z,0.80
2018-12-08T12:00:18.310Z,0.90
2018-12-08T12:02:44.968Z,0.77
2018-12-08T12:05:11.448Z,0.40
2018-12-08T12:07:38.100Z,0.73
2018-12-08T12:10:04.837Z,0.70
2018-12-08T12:12:31.479Z,0.70
2018-12-08T12:14:58.112Z,0.60
2018-12-08T12:17:24.756Z,0.87
2018-12-08T12:19:51.391Z,0.60
2018-12-08T12:22:18.028Z,0.70
2018-12-08T12:24:44.668Z,0.77
2018-12-08T12:27:11.311Z,0.80
2018-12-08T12:29:37.568Z,0.50
2018-12-08T12:32:04.199Z,0.70
2018-12-08T12:34:37.765Z,0.50
2018-12-08T12:37:04.418Z,0.60
2018-12-08T12:39:31.156Z,0.50
2018-12-08T12:41:57.784Z,0.50
2018-12-08T12:44:24.410Z,0.50
2018-12-08T12:46:51.116Z,0.30
2018-12-08T12:49:17.776Z,0.50
2018-12-08T12:51:44.443Z,0.70
2018-12-08T12:54:10.749Z,0.43
2018-12-08T12:56:37.081Z,0.60
2018-12-08T12:59:03.844Z,0.40
2018-12-08T13:01:30.536Z,0.57
2018-12-08T13:03:57.801Z,0.50
2018-12-08T13:06:24.560Z,0.50
2018-12-08T13:08:51.092Z,0.43
2018-12-08T13:11:17.789Z,0.47
2018-12-08T13:13:44.407Z,0.47
2018-12-08T13:16:11.056Z,0.50
2018-12-08T13:18:37.751Z,0.60
2018-12-08T13:21:04.044Z,0.50
2018-12-08T13:23:30.340Z,0.40
2018-12-08T13:25:57.061Z,0.37
2018-12-08T13:28:23.703Z,0.40
2018-12-08T13:30:50.818Z,0.40
2018-12-08T13:33:17.514Z,0.53
2018-12-08T13:35:49.801Z,0.50
2018-12-08T13:38:17.016Z,0.40
2018-12-08T13:40:43.707Z,0.40
2018-12-08T13:43:10.352Z,0.40
2018-12-08T13:45:37.036Z,0.73
2018-12-08T13:48:03.712Z,0.50
2018-12-08T13:50:30.348Z,0.53
2018-12-08T13:52:56.999Z,0.33
2018-12-08T13:55:23.287Z,0.30
2018-12-08T13:57:49.609Z,0.40
2018-12-08T14:00:16.256Z,0.30
2018-12-08T14:02:42.902Z,0.30
2018-12-08T14:05:09.552Z,0.40
2018-12-08T14:07:36.190Z,0.40
2018-12-08T14:10:03.456Z,0.40
2018-12-08T14:12:30.338Z,0.50
2018-12-08T14:14:57.075Z,0.40
2018-12-08T14:17:23.717Z,0.40
2018-12-08T14:19:50.027Z,1.10
2018-12-08T14:22:16.749Z,1.30
2018-12-08T14:24:43.411Z,1.30
2018-12-08T14:27:10.068Z,1.30
2018-12-08T14:29:36.730Z,0.50
2018-12-08T14:32:03.273Z,0.57
2018-12-08T14:34:29.582Z,0.63
2018-12-08T14:36:56.222Z,0.50
2018-12-08T14:39:22.869Z,0.60
2018-12-08T14:41:49.203Z,0.27
2018-12-08T14:44:15.541Z,0.50
2018-12-08T14:46:41.963Z,0.50
2018-12-08T14:49:08.587Z,0.40
2018-12-08T14:51:41.660Z,0.50
2018-12-08T14:54:08.018Z,0.50
2018-12-08T14:56:34.752Z,0.30
2018-12-08T14:59:01.420Z,0.60
2018-12-08T15:01:28.240Z,0.53
2018-12-08T15:03:54.940Z,0.60
2018-12-08T15:06:21.833Z,0.60
2018-12-08T15:08:48.152Z,0.50
2018-12-08T15:11:14.804Z,0.50
2018-12-08T15:13:41.107Z,0.63
2018-12-08T15:16:07.848Z,0.57
2018-12-08T15:18:34.560Z,0.60
2018-12-08T15:21:00.854Z,0.80
2018-12-08T15:23:27.486Z,0.70
2018-12-08T15:25:54.156Z,0.50
2018-12-08T15:28:20.836Z,0.50
2018-12-08T15:30:47.485Z,0.70
2018-12-08T15:33:14.115Z,0.37
2018-12-08T15:35:40.971Z,0.63
2018-12-08T15:38:07.712Z,0.90
2018-12-08T15:40:34.370Z,0.77
2018-12-08T15:43:00.670Z,0.87
2018-12-08T15:45:27.289Z,0.40
2018-12-08T15:47:54.079Z,0.60
2018-12-08T15:50:20.720Z,0.60
2018-12-08T15:52:47.424Z,0.60
2018-12-08T15:55:14.167Z,0.67
2018-12-08T15:57:40.470Z,0.50
2018-12-08T16:00:10.401Z,0.67
2018-12-08T16:02:36.804Z,0.50
2018-12-08T16:05:05.048Z,0.73
2018-12-08T16:07:31.796Z,0.73
2018-12-08T16:09:58.468Z,0.53
2018-12-08T16:12:25.128Z,0.60
2018-12-08T16:14:51.900Z,0.50
2018-12-08T16:17:18.256Z,0.60
2018-12-08T16:19:44.958Z,0.57
2018-12-08T16:22:11.632Z,0.87
2018-12-08T16:24:38.264Z,0.50
2018-12-08T16:27:05.639Z,1.17
2018-12-08T16:29:31.974Z,2.27
2018-12-08T16:31:58.695Z,1.47
2018-12-08T16:34:25.349Z,1.00
2018-12-08T16:36:52.011Z,0.63
2018-12-08T16:39:18.826Z,0.80
2018-12-08T16:41:45.653Z,0.90
2018-12-08T16:44:12.338Z,0.93
2018-12-08T16:46:39.068Z,0.77
2018-12-08T16:49:05.717Z,1.10
2018-12-08T16:51:32.371Z,1.77
2018-12-08T16:53:58.934Z,1.00
2018-12-08T16:56:25.730Z,1.20
2018-12-08T16:58:52.137Z,0.60
2018-12-08T17:01:18.768Z,0.53
2018-12-08T17:03:45.104Z,0.50
2018-12-08T17:06:11.744Z,0.63
2018-12-08T17:08:38.408Z,0.70
2018-12-08T17:11:05.110Z,0.70
2018-12-08T17:13:31.745Z,0.70
2018-12-08T17:15:58.415Z,1.17
2018-12-08T17:18:24.933Z,0.87
2018-12-08T17:20:51.269Z,1.00
2018-12-08T17:23:17.917Z,0.57
2018-12-08T17:25:44.682Z,0.40
2018-12-08T17:28:11.318Z,1.10
2018-12-08T17:30:37.968Z,0.80
2018-12-08T17:33:04.612Z,0.70
2018-12-08T17:35:31.344Z,0.70
2018-12-08T17:37:57.725Z,0.50
2018-12-08T17:40:24.564Z,0.60
2018-12-08T17:42:50.923Z,0.70
2018-12-08T17:45:18.041Z,0.60
2018-12-08T17:47:44.979Z,0.70
2018-12-08T17:50:11.749Z,0.30
2018-12-08T17:52:38.077Z,0.40
2018-12-08T17:55:05.220Z,0.50
2018-12-08T17:57:38.516Z,0.70
2018-12-08T18:00:06.063Z,0.80
2018-12-08T18:02:32.536Z,0.80
2018-12-08T18:04:59.242Z,0.70
2018-12-08T18:07:25.921Z,0.80
2018-12-08T18:09:52.256Z,0.70
2018-12-08T18:12:18.912Z,1.40
2018-12-08T18:14:45.208Z,0.93
2018-12-08T18:17:11.896Z,1.00
2018-12-08T18:19:38.561Z,0.60
2018-12-08T18:22:05.329Z,0.90
2018-12-08T18:24:31.984Z,1.90
2018-12-08T18:26:58.732Z,1.73
2018-12-08T18:29:25.308Z,1.50
2018-12-08T18:31:51.652Z,1.03
2018-12-08T18:34:17.973Z,0.70
2018-12-08T18:36:44.604Z,0.80
2018-12-08T18:39:11.251Z,0.67
2018-12-08T18:41:37.901Z,1.00
2018-12-08T18:44:04.552Z,1.03
2018-12-08T18:46:31.224Z,1.20
2018-12-08T18:48:57.910Z,1.40
2018-12-08T18:51:24.221Z,2.13
2018-12-08T18:53:50.854Z,2.23
2018-12-08T18:56:17.499Z,1.93
2018-12-08T18:58:44.119Z,1.20
2018-12-08T19:01:10.432Z,0.80
2018-12-08T19:03:37.101Z,0.90
2018-12-08T19:06:03.773Z,0.50
2018-12-08T19:08:30.400Z,0.77
2018-12-08T19:10:57.051Z,0.70
2018-12-08T19:13:30.658Z,0.87
2018-12-08T19:15:57.114Z,0.90
2018-12-08T19:18:23.747Z,0.63
2018-12-08T19:20:50.389Z,0.87
2018-12-08T19:23:17.045Z,0.90
2018-12-08T19:25:43.669Z,0.97
2018-12-08T19:28:10.305Z,0.70
2018-12-08T19:30:36.952Z,0.90
2018-12-08T19:33:03.532Z,0.50
2018-12-08T19:35:30.436Z,1.17
2018-12-08T19:37:57.059Z,0.83
2018-12-08T19:40:23.700Z,0.70
2018-12-08T19:42:50.405Z,0.90
2018-12-08T19:45:17.040Z,0.80
2018-12-08T19:47:43.335Z,0.77
2018-12-08T19:50:10.007Z,0.63
2018-12-08T19:52:43.539Z,1.00
2018-12-08T19:55:09.820Z,0.70
2018-12-08T19:57:36.147Z,0.93
2018-12-08T20:00:03.695Z,1.23
2018-12-08T20:02:30.376Z,0.80
2018-12-08T20:04:57.024Z,1.07
2018-12-08T20:07:23.655Z,0.90
2018-12-08T20:09:50.292Z,0.73
2018-12-08T20:12:18.572Z,0.57
2018-12-08T20:14:45.460Z,0.50
2018-12-08T20:17:12.116Z,0.50
2018-12-08T20:19:38.751Z,0.70
2018-12-08T20:22:05.392Z,0.60
2018-12-08T20:24:32.269Z,0.77
2018-12-08T20:26:58.556Z,0.63
2018-12-08T20:29:25.196Z,0.60
2018-12-08T20:31:51.848Z,0.70
2018-12-08T20:34:18.137Z,0.90
2018-12-08T20:36:44.781Z,0.70
2018-12-08T20:39:11.422Z,0.53
2018-12-08T20:41:37.840Z,0.60
2018-12-08T20:44:04.154Z,0.70
2018-12-08T20:46:30.800Z,0.80
2018-12-08T20:48:57.418Z,0.57
2018-12-08T20:51:24.060Z,0.53
2018-12-08T20:53:50.389Z,0.40
2018-12-08T20:56:16.945Z,0.67
2018-12-08T20:58:43.572Z,0.60
2018-12-08T21:01:10.220Z,0.40
2018-12-08T21:03:36.989Z,0.60
2018-12-08T21:06:03.381Z,0.40
2018-12-08T21:08:30.065Z,0.60
2018-12-08T21:10:56.781Z,0.50
2018-12-08T21:13:23.404Z,0.30
2018-12-08T21:15:50.072Z,0.40
2018-12-08T21:18:16.402Z,0.40
2018-12-08T21:20:42.716Z,0.40
2018-12-08T21:23:09.029Z,0.40
2018-12-08T21:25:35.678Z,0.30
2018-12-08T21:28:02.436Z,0.60
2018-12-08T21:30:29.084Z,0.33
2018-12-08T21:32:56.042Z,0.40
2018-12-08T21:35:22.703Z,0.40
2018-12-08T21:37:49.377Z,0.50
2018-12-08T21:40:20.857Z,0.37
2018-12-08T21:42:47.488Z,0.40
2018-12-08T21:45:14.418Z,0.43
2018-12-08T21:47:41.310Z,0.60
2018-12-08T21:50:07.640Z,0.53
2018-12-08T21:52:34.340Z,0.40
2018-12-08T21:55:01.004Z,0.30
2018-12-08T21:57:27.645Z,0.30
2018-12-08T21:59:53.924Z,0.13
2018-12-08T22:02:20.284Z,0.37
2018-12-08T22:04:46.597Z,0.23
2018-12-08T22:07:12.905Z,0.40
2018-12-08T22:09:39.587Z,0.47
2018-12-08T22:12:06.221Z,0.30
2018-12-08T22:14:34.899Z,0.47
2018-12-08T22:17:01.203Z,0.10
2018-12-08T22:19:27.534Z,0.30
2018-12-08T22:21:54.176Z,0.50
2018-12-08T22:24:20.840Z,0.40
2018-12-08T22:26:47.558Z,0.20
2018-12-08T22:29:14.210Z,0.30
2018-12-08T22:31:40.909Z,0.70
2018-12-08T22:34:07.555Z,0.80
2018-12-08T22:36:34.207Z,0.50
2018-12-08T22:39:00.892Z,0.30
2018-12-08T22:41:27.572Z,0.20
2018-12-08T22:43:54.089Z,0.20
2018-12-08T22:46:20.758Z,0.30
2018-12-08T22:48:47.416Z,0.20
2018-12-08T22:51:14.049Z,0.10
2018-12-08T22:53:40.688Z,0.20
2018-12-08T22:56:07.326Z,0.17
2018-12-08T22:58:34.031Z,0.10
2018-12-08T23:01:00.660Z,0.10
2018-12-08T23:03:27.360Z,0.10
2018-12-08T23:05:54.843Z,0.13
2018-12-08T23:08:21.490Z,0.10
2018-12-08T23:10:48.094Z,0.10
2018-12-08T23:13:14.403Z,0.17
2018-12-08T23:15:41.081Z,0.20
2018-12-08T23:18:07.513Z,0.20
2018-12-08T23:20:34.148Z,0.20
2018-12-08T23:23:00.787Z,0.10
2018-12-08T23:25:27.490Z,0.13
2018-12-08T23:27:54.116Z,0.10
2018-12-08T23:30:20.784Z,0.10
2018-12-08T23:32:47.445Z,0.10
2018-12-08T23:35:13.750Z,0.00
2018-12-08T23:37:40.397Z,0.10
2018-12-08T23:40:07.302Z,0.20
2018-12-08T23:42:33.936Z,0.10
2018-12-08T23:45:00.586Z,0.10
2018-12-08T23:47:26.874Z,0.10
2018-12-08T23:49:53.507Z,0.20
2018-12-08T23:52:20.276Z,0.10
2018-12-08T23:54:46.957Z,0.10
2018-12-08T23:57:13.321Z,0.20
2018-12-08T23:59:39.642Z,0.10
